createdAt,value
2023-10-03T00:00:56.366Z,15.87
2023-10-03T00:03:24.574Z,16.83
2023-10-03T00:05:52.574Z,15.57
2023-10-03T00:08:19.977Z,14.83
2023-10-03T00:10:46.651Z,15.60
2023-10-03T00:13:13.573Z,15.40
2023-10-03T00:15:44.858Z,16.53
2023-10-03T00:18:15.743Z,15.27
2023-10-03T00:20:44.109Z,15.73
2023-10-03T00:23:10.940Z,15.37
2023-10-03T00:25:37.867Z,15.63
2023-10-03T00:28:08.076Z,15.60
2023-10-03T00:30:37.671Z,15.87
2023-10-03T00:33:06.460Z,16.07
2023-10-03T00:35:33.447Z,16.57
2023-10-03T00:38:01.364Z,17.10
2023-10-03T00:40:28.972Z,16.83
2023-10-03T00:43:00.345Z,15.20
2023-10-03T00:45:28.276Z,15.33
2023-10-03T00:48:02.554Z,15.60
2023-10-03T00:50:32.682Z,17.00
2023-10-03T00:53:09.868Z,16.37
2023-10-03T00:55:40.902Z,15.70
2023-10-03T00:58:12.585Z,15.47
2023-10-03T01:00:47.053Z,15.60
2023-10-03T01:03:25.953Z,16.07
2023-10-03T01:05:53.582Z,16.07
2023-10-03T01:08:21.153Z,16.40
2023-10-03T01:10:48.047Z,17.20
2023-10-03T01:13:14.765Z,16.53
2023-10-03T01:15:41.515Z,16.17
2023-10-03T01:18:13.647Z,14.77
2023-10-03T01:20:43.226Z,16.60
2023-10-03T01:23:14.504Z,15.83
2023-10-03T01:25:44.210Z,16.70
2023-10-03T01:28:12.455Z,16.37
2023-10-03T01:30:42.207Z,16.77
2023-10-03T01:33:10.556Z,15.77
2023-10-03T01:35:37.297Z,16.70
2023-10-03T01:38:05.808Z,16.00
2023-10-03T01:40:32.963Z,15.50
2023-10-03T01:42:59.674Z,15.10
2023-10-03T01:45:33.532Z,17.40
2023-10-03T01:48:00.757Z,16.40
2023-10-03T01:50:30.526Z,15.03
2023-10-03T01:52:57.139Z,15.67
2023-10-03T01:55:23.712Z,15.20
2023-10-03T01:57:51.130Z,15.10
2023-10-03T02:00:25.863Z,15.80
2023-10-03T02:02:57.948Z,16.00
2023-10-03T02:05:27.385Z,15.87
2023-10-03T02:07:59.069Z,15.07
2023-10-03T02:10:27.303Z,16.90
2023-10-03T02:12:54.300Z,15.40
2023-10-03T02:15:23.634Z,14.63
2023-10-03T02:17:58.349Z,16.63
2023-10-03T02:20:31.819Z,14.87
2023-10-03T02:22:58.907Z,14.10
2023-10-03T02:25:29.120Z,15.87
2023-10-03T02:27:57.825Z,15.30
2023-10-03T02:30:28.736Z,15.57
2023-10-03T02:32:58.319Z,15.13
2023-10-03T02:35:26.961Z,16.70
2023-10-03T02:37:58.229Z,15.47
2023-10-03T02:40:28.219Z,16.10
2023-10-03T02:42:55.846Z,16.80
2023-10-03T02:45:23.966Z,16.40
2023-10-03T02:47:52.708Z,14.93
2023-10-03T02:50:19.373Z,14.73
2023-10-03T02:52:49.159Z,14.87
2023-10-03T02:55:18.160Z,15.60
2023-10-03T02:57:46.094Z,15.10
2023-10-03T03:00:13.540Z,14.80
2023-10-03T03:02:44.444Z,14.77
2023-10-03T03:05:13.030Z,16.37
2023-10-03T03:07:39.531Z,14.23
2023-10-03T03:10:07.012Z,14.80
2023-10-03T03:12:36.614Z,14.43
2023-10-03T03:15:06.123Z,15.57
2023-10-03T03:17:33.079Z,13.93
2023-10-03T03:20:00.357Z,15.90
2023-10-03T03:22:27.452Z,15.43
2023-10-03T03:24:54.729Z,15.93
2023-10-03T03:27:27.129Z,15.10
2023-10-03T03:30:19.664Z,15.57
2023-10-03T03:32:46.724Z,15.20
2023-10-03T03:35:13.456Z,14.53
2023-10-03T03:37:40.358Z,15.20
2023-10-03T03:40:14.612Z,14.63
2023-10-03T03:42:41.115Z,14.20
2023-10-03T03:45:08.391Z,13.33
2023-10-03T03:47:35.043Z,14.50
2023-10-03T03:50:11.427Z,13.93
2023-10-03T03:52:38.155Z,14.60
2023-10-03T03:55:05.291Z,14.40
2023-10-03T03:57:31.802Z,13.43
2023-10-03T03:59:58.362Z,12.93
2023-10-03T04:02:25.315Z,13.73
2023-10-03T04:04:51.833Z,13.97
2023-10-03T04:07:18.345Z,13.20
2023-10-03T04:09:45.966Z,13.20
2023-10-03T04:12:14.449Z,14.13
2023-10-03T04:14:41.005Z,14.10
2023-10-03T04:17:10.128Z,14.40
2023-10-03T04:19:36.662Z,12.77
2023-10-03T04:22:03.189Z,12.97
2023-10-03T04:24:30.455Z,14.40
2023-10-03T04:26:58.452Z,13.33
2023-10-03T04:29:25.006Z,14.23
2023-10-03T04:31:51.511Z,13.80
2023-10-03T04:34:21.551Z,14.40
2023-10-03T04:36:48.973Z,13.17
2023-10-03T04:39:15.696Z,14.77
2023-10-03T04:41:45.141Z,13.57
2023-10-03T04:44:17.367Z,12.40
2023-10-03T04:46:46.488Z,13.70
2023-10-03T04:49:13.829Z,12.03
2023-10-03T04:51:40.764Z,13.10
2023-10-03T04:54:07.386Z,13.30
2023-10-03T04:56:33.929Z,13.60
2023-10-03T04:59:01.634Z,12.77
2023-10-03T05:01:28.304Z,12.53
2023-10-03T05:03:55.373Z,12.97
2023-10-03T05:06:22.479Z,12.70
2023-10-03T05:08:49.569Z,12.10
2023-10-03T05:11:16.089Z,11.37
2023-10-03T05:13:44.644Z,13.07
2023-10-03T05:16:11.244Z,12.00
2023-10-03T05:18:38.344Z,12.37
2023-10-03T05:21:05.109Z,11.80
2023-10-03T05:23:31.708Z,12.07
2023-10-03T05:25:58.334Z,11.33
2023-10-03T05:28:24.860Z,11.10
2023-10-03T05:30:51.627Z,10.20
2023-10-03T05:33:18.281Z,10.70
2023-10-03T05:35:46.898Z,10.70
2023-10-03T05:38:13.489Z,10.53
2023-10-03T05:40:41.031Z,11.93
2023-10-03T05:43:08.588Z,11.43
2023-10-03T05:45:36.851Z,10.70
2023-10-03T05:48:05.175Z,11.00
2023-10-03T05:50:33.912Z,9.90
2023-10-03T05:53:00.867Z,10.33
2023-10-03T05:55:27.417Z,9.70
2023-10-03T05:57:54.589Z,10.13
2023-10-03T06:00:21.281Z,9.07
2023-10-03T06:02:48.823Z,9.57
2023-10-03T06:05:16.556Z,10.30
2023-10-03T06:07:44.338Z,9.80
2023-10-03T06:10:12.137Z,10.07
2023-10-03T06:12:39.233Z,9.80
2023-10-03T06:15:06.799Z,10.67
2023-10-03T06:17:34.153Z,8.60
2023-10-03T06:20:00.826Z,9.17
2023-10-03T06:22:27.664Z,10.30
2023-10-03T06:24:58.918Z,10.33
2023-10-03T06:27:28.329Z,9.40
2023-10-03T06:29:55.472Z,9.00
2023-10-03T06:32:22.359Z,9.03
2023-10-03T06:34:48.958Z,9.40
2023-10-03T06:37:15.518Z,8.43
2023-10-03T06:39:43.265Z,9.47
2023-10-03T06:42:10.137Z,9.30
2023-10-03T06:44:42.042Z,8.70
2023-10-03T06:47:10.208Z,9.37
2023-10-03T06:49:37.229Z,8.67
2023-10-03T06:52:05.096Z,9.20
2023-10-03T06:54:31.791Z,9.50
2023-10-03T06:56:58.418Z,8.73
2023-10-03T06:59:25.112Z,8.47
2023-10-03T07:01:51.994Z,9.00
2023-10-03T07:04:19.935Z,9.67
2023-10-03T07:06:47.248Z,10.00
2023-10-03T07:09:15.350Z,9.70
2023-10-03T07:11:42.412Z,9.80
2023-10-03T07:14:16.993Z,9.50
2023-10-03T07:16:47.914Z,7.83
2023-10-03T07:19:17.262Z,9.80
2023-10-03T07:21:44.111Z,9.47
2023-10-03T07:24:10.689Z,9.77
2023-10-03T07:26:37.346Z,8.90
2023-10-03T07:29:04.404Z,10.13
2023-10-03T07:31:35.305Z,8.73
2023-10-03T07:34:02.458Z,8.53
2023-10-03T07:36:29.004Z,9.37
2023-10-03T07:38:55.696Z,9.67
2023-10-03T07:41:23.067Z,9.07
2023-10-03T07:43:50.095Z,10.40
2023-10-03T07:46:24.250Z,9.70
2023-10-03T07:49:00.137Z,10.37
2023-10-03T07:51:27.943Z,9.20
2023-10-03T07:53:56.753Z,8.73
2023-10-03T07:56:32.061Z,9.63
2023-10-03T07:59:03.391Z,9.40
2023-10-03T08:01:57.385Z,9.67
2023-10-03T08:04:26.732Z,8.77
2023-10-03T08:06:53.292Z,9.27
2023-10-03T08:09:25.602Z,9.37
2023-10-03T08:11:53.672Z,9.03
2023-10-03T08:14:20.223Z,9.87
2023-10-03T08:16:48.399Z,9.03
2023-10-03T08:19:22.819Z,9.80
2023-10-03T08:21:50.178Z,8.50
2023-10-03T08:24:20.460Z,9.47
2023-10-03T08:26:52.296Z,8.73
2023-10-03T08:29:22.725Z,8.13
2023-10-03T08:32:01.420Z,9.23
2023-10-03T08:34:31.695Z,8.33
2023-10-03T08:37:03.197Z,9.40
2023-10-03T08:39:33.791Z,8.70
2023-10-03T08:42:13.475Z,8.70
2023-10-03T08:44:59.928Z,8.87
2023-10-03T08:47:39.907Z,9.23
2023-10-03T08:50:12.344Z,9.10
2023-10-03T08:52:51.162Z,9.37
2023-10-03T08:55:21.772Z,16.20
2023-10-03T08:57:50.139Z,15.90
2023-10-03T09:00:17.789Z,9.87
2023-10-03T09:02:52.643Z,9.40
2023-10-03T09:05:21.782Z,8.43
2023-10-03T09:07:48.879Z,9.50
2023-10-03T09:10:24.272Z,8.30
2023-10-03T09:12:52.364Z,8.17
2023-10-03T09:15:23.808Z,8.60
2023-10-03T09:17:54.205Z,8.17
2023-10-03T09:20:22.546Z,8.30
2023-10-03T09:22:49.839Z,8.33
2023-10-03T09:25:22.857Z,8.23
2023-10-03T09:27:49.520Z,7.60
2023-10-03T09:30:39.584Z,7.27
2023-10-03T09:33:07.570Z,7.73
2023-10-03T09:35:35.227Z,7.17
2023-10-03T09:38:09.738Z,7.30
2023-10-03T09:40:52.607Z,6.97
2023-10-03T09:43:20.813Z,6.10
2023-10-03T09:45:48.560Z,6.67
2023-10-03T09:48:17.065Z,7.17
2023-10-03T09:50:54.578Z,6.50
2023-10-03T09:53:28.968Z,6.43
2023-10-03T09:55:57.303Z,6.10
2023-10-03T09:58:32.265Z,6.00
2023-10-03T10:00:59.540Z,6.67
2023-10-03T10:03:34.439Z,6.70
2023-10-03T10:06:13.936Z,6.47
2023-10-03T10:08:59.647Z,6.30
2023-10-03T10:11:28.426Z,6.17
2023-10-03T10:14:12.200Z,6.87
2023-10-03T10:17:17.748Z,5.90
2023-10-03T10:20:09.936Z,6.53
2023-10-03T10:22:59.327Z,6.60
2023-10-03T10:25:31.688Z,5.57
2023-10-03T10:28:08.902Z,6.17
2023-10-03T10:30:36.475Z,6.20
2023-10-03T10:33:24.889Z,6.37
2023-10-03T10:36:04.568Z,5.50
2023-10-03T10:38:34.420Z,4.70
2023-10-03T10:41:18.304Z,5.40
2023-10-03T10:44:15.958Z,5.30
2023-10-03T10:46:45.721Z,6.00
2023-10-03T10:49:38.109Z,5.90
2023-10-03T10:52:11.246Z,5.10
2023-10-03T10:54:44.117Z,5.43
2023-10-03T10:57:12.217Z,5.17
2023-10-03T10:59:42.359Z,5.20
2023-10-03T11:02:19.088Z,4.60
2023-10-03T11:04:53.797Z,5.57
2023-10-03T11:07:24.361Z,6.00
2023-10-03T11:09:55.511Z,5.07
2023-10-03T11:12:29.824Z,5.20
2023-10-03T11:14:57.607Z,5.00
2023-10-03T11:17:25.392Z,5.17
2023-10-03T11:19:53.900Z,5.07
2023-10-03T11:22:20.764Z,5.73
2023-10-03T11:24:47.303Z,5.37
2023-10-03T11:27:31.049Z,5.90
2023-10-03T11:29:58.310Z,5.67
2023-10-03T11:32:32.041Z,5.03
2023-10-03T11:34:59.784Z,5.07
2023-10-03T11:37:31.115Z,5.77
2023-10-03T11:40:17.352Z,5.73
2023-10-03T11:42:45.358Z,5.30
2023-10-03T11:45:16.788Z,5.27
2023-10-03T11:47:43.565Z,6.33
2023-10-03T11:50:11.221Z,5.90
2023-10-03T11:52:39.035Z,5.20
2023-10-03T11:55:10.147Z,11.27
2023-10-03T11:57:36.778Z,10.90
2023-10-03T12:00:15.865Z,7.40
2023-10-03T12:02:51.136Z,5.17
2023-10-03T12:05:17.708Z,4.80
2023-10-03T12:07:48.433Z,5.97
2023-10-03T12:10:15.275Z,5.00
2023-10-03T12:12:41.997Z,4.80
2023-10-03T12:15:18.095Z,5.00
2023-10-03T12:17:49.877Z,4.90
2023-10-03T12:20:19.349Z,5.80
2023-10-03T12:22:48.502Z,5.20
2023-10-03T12:25:17.910Z,5.20
2023-10-03T12:27:45.549Z,5.20
2023-10-03T12:30:14.527Z,5.53
2023-10-03T12:32:42.584Z,5.40
2023-10-03T12:35:10.830Z,5.60
2023-10-03T12:37:38.853Z,5.50
2023-10-03T12:40:14.380Z,4.93
2023-10-03T12:42:45.065Z,5.07
2023-10-03T12:45:16.303Z,5.17
2023-10-03T12:47:49.061Z,4.07
2023-10-03T12:50:22.845Z,3.10
2023-10-03T12:52:49.710Z,2.13
2023-10-03T12:55:20.023Z,2.33
2023-10-03T12:57:49.701Z,2.40
2023-10-03T13:00:21.578Z,2.40
2023-10-03T13:02:50.429Z,2.30
2023-10-03T13:05:19.187Z,2.30
2023-10-03T13:07:49.165Z,1.90
2023-10-03T13:10:16.891Z,2.13
2023-10-03T13:12:43.485Z,2.20
2023-10-03T13:15:19.134Z,2.23
2023-10-03T13:17:47.182Z,1.70
2023-10-03T13:20:14.360Z,2.70
2023-10-03T13:22:43.225Z,3.37
2023-10-03T13:25:11.531Z,1.73
2023-10-03T13:27:38.489Z,1.83
2023-10-03T13:30:11.401Z,1.63
2023-10-03T13:32:39.267Z,1.80
2023-10-03T13:35:25.576Z,1.40
2023-10-03T13:37:52.759Z,1.53
2023-10-03T13:40:19.540Z,1.53
2023-10-03T13:42:48.686Z,1.93
2023-10-03T13:45:16.946Z,1.70
2023-10-03T13:47:44.481Z,1.83
2023-10-03T13:50:13.437Z,1.70
2023-10-03T13:52:42.034Z,2.00
2023-10-03T13:55:11.307Z,1.57
2023-10-03T13:57:38.710Z,2.00
2023-10-03T14:00:12.757Z,2.57
2023-10-03T14:02:40.404Z,1.83
2023-10-03T14:05:11.285Z,1.67
2023-10-03T14:07:38.295Z,1.90
2023-10-03T14:10:10.739Z,2.60
2023-10-03T14:12:37.454Z,2.10
2023-10-03T14:15:04.718Z,1.90
2023-10-03T14:17:31.411Z,3.00
2023-10-03T14:19:57.953Z,2.23
2023-10-03T14:22:24.646Z,1.73
2023-10-03T14:24:51.604Z,1.83
2023-10-03T14:27:18.223Z,2.13
2023-10-03T14:29:44.867Z,1.90
2023-10-03T14:32:12.195Z,1.83
2023-10-03T14:34:42.429Z,1.97
2023-10-03T14:37:10.591Z,1.90
2023-10-03T14:39:37.448Z,1.90
2023-10-03T14:42:04.334Z,1.83
2023-10-03T14:44:31.036Z,2.67
2023-10-03T14:46:58.667Z,1.57
2023-10-03T14:49:26.093Z,1.40
2023-10-03T14:51:53.700Z,1.93
2023-10-03T14:54:20.376Z,2.00
2023-10-03T14:56:50.073Z,2.23
2023-10-03T14:59:16.885Z,1.70
2023-10-03T15:01:44.924Z,1.70
2023-10-03T15:04:12.048Z,2.00
2023-10-03T15:06:43.713Z,1.43
2023-10-03T15:09:10.648Z,2.00
2023-10-03T15:11:37.345Z,1.90
2023-10-03T15:14:05.459Z,1.60
2023-10-03T15:16:34.336Z,1.60
2023-10-03T15:19:06.273Z,2.00
2023-10-03T15:21:35.935Z,1.70
2023-10-03T15:24:03.080Z,1.80
2023-10-03T15:26:31.163Z,1.90
2023-10-03T15:28:57.862Z,1.70
2023-10-03T15:31:25.997Z,1.63
2023-10-03T15:33:56.515Z,1.80
2023-10-03T15:36:23.208Z,2.00
2023-10-03T15:38:49.849Z,1.70
2023-10-03T15:41:16.613Z,1.80
2023-10-03T15:43:46.643Z,1.80
2023-10-03T15:46:13.280Z,1.70
2023-10-03T15:48:39.906Z,2.00
2023-10-03T15:51:13.828Z,1.40
2023-10-03T15:53:42.160Z,1.60
2023-10-03T15:56:11.249Z,1.93
2023-10-03T15:58:38.317Z,1.47
2023-10-03T16:01:04.973Z,2.20
2023-10-03T16:03:31.675Z,1.67
2023-10-03T16:05:59.135Z,1.60
2023-10-03T16:08:30.793Z,1.73
2023-10-03T16:10:58.245Z,1.60
2023-10-03T16:13:24.820Z,1.77
2023-10-03T16:15:51.478Z,1.50
2023-10-03T16:18:18.101Z,1.80
2023-10-03T16:20:47.984Z,2.20
2023-10-03T16:23:14.947Z,2.07
2023-10-03T16:25:42.327Z,1.73
2023-10-03T16:28:09.077Z,1.70
2023-10-03T16:30:35.687Z,1.80
2023-10-03T16:33:02.350Z,1.77
2023-10-03T16:35:29.013Z,2.30
2023-10-03T16:37:55.692Z,1.97
2023-10-03T16:40:23.748Z,2.40
2023-10-03T16:42:50.490Z,1.97
2023-10-03T16:45:18.747Z,2.77
2023-10-03T16:47:48.802Z,2.87
2023-10-03T16:50:17.994Z,2.50
2023-10-03T16:52:45.469Z,2.37
2023-10-03T16:55:12.957Z,2.20
2023-10-03T16:57:40.392Z,2.07
2023-10-03T17:00:13.861Z,2.03
2023-10-03T17:02:42.020Z,2.70
2023-10-03T17:05:12.171Z,3.77
2023-10-03T17:07:42.843Z,5.50
2023-10-03T17:10:16.899Z,3.60
2023-10-03T17:12:43.519Z,3.23
2023-10-03T17:15:10.986Z,3.27
2023-10-03T17:17:40.822Z,3.13
2023-10-03T17:20:09.393Z,2.60
2023-10-03T17:22:36.260Z,2.60
2023-10-03T17:25:02.945Z,3.07
2023-10-03T17:27:29.692Z,2.30
2023-10-03T17:29:56.340Z,2.53
2023-10-03T17:32:22.971Z,3.37
2023-10-03T17:34:49.525Z,6.43
2023-10-03T17:37:17.522Z,3.10
2023-10-03T17:39:45.056Z,3.10
2023-10-03T17:42:11.803Z,2.87
2023-10-03T17:44:38.430Z,2.77
2023-10-03T17:47:05.276Z,2.70
2023-10-03T17:49:32.266Z,3.67
2023-10-03T17:51:58.839Z,2.70
2023-10-03T17:54:33.780Z,3.83
2023-10-03T17:57:00.833Z,2.77
2023-10-03T17:59:27.423Z,2.70
2023-10-03T18:01:58.363Z,2.80
2023-10-03T18:04:25.209Z,3.00
2023-10-03T18:06:51.994Z,3.13
2023-10-03T18:09:23.323Z,2.40
2023-10-03T18:11:50.909Z,2.57
2023-10-03T18:14:17.850Z,3.50
2023-10-03T18:16:44.658Z,3.27
2023-10-03T18:19:11.510Z,3.43
2023-10-03T18:21:38.320Z,3.37
2023-10-03T18:24:05.534Z,3.17
2023-10-03T18:26:32.286Z,3.13
2023-10-03T18:29:00.057Z,3.40
2023-10-03T18:31:26.799Z,3.10
2023-10-03T18:33:56.926Z,3.10
2023-10-03T18:36:24.312Z,3.03
2023-10-03T18:38:51.120Z,2.60
2023-10-03T18:41:20.468Z,3.17
2023-10-03T18:43:48.647Z,3.00
2023-10-03T18:46:15.416Z,2.70
2023-10-03T18:48:42.236Z,3.30
2023-10-03T18:51:09.051Z,2.70
2023-10-03T18:53:37.170Z,2.50
2023-10-03T18:56:04.315Z,3.27
2023-10-03T18:58:30.872Z,3.03
2023-10-03T19:00:58.768Z,3.00
2023-10-03T19:03:27.493Z,2.30
2023-10-03T19:05:54.619Z,2.97
2023-10-03T19:08:21.275Z,3.87
2023-10-03T19:10:50.748Z,2.80
2023-10-03T19:13:17.369Z,2.90
2023-10-03T19:15:43.922Z,2.63
2023-10-03T19:18:10.651Z,2.60
2023-10-03T19:20:37.301Z,2.50
2023-10-03T19:23:04.331Z,2.93
2023-10-03T19:25:33.849Z,2.73
2023-10-03T19:28:02.278Z,2.87
2023-10-03T19:30:29.050Z,3.50
2023-10-03T19:32:55.865Z,2.53
2023-10-03T19:35:22.879Z,2.53
2023-10-03T19:37:49.675Z,2.90
2023-10-03T19:40:18.129Z,2.97
2023-10-03T19:42:44.918Z,3.23
2023-10-03T19:45:11.789Z,2.47
2023-10-03T19:47:38.400Z,2.63
2023-10-03T19:50:06.562Z,2.87
2023-10-03T19:52:37.025Z,2.60
2023-10-03T19:55:07.612Z,3.10
2023-10-03T19:57:38.018Z,2.60
2023-10-03T20:00:08.152Z,3.20
2023-10-03T20:02:34.901Z,3.00
2023-10-03T20:05:01.518Z,2.80
2023-10-03T20:07:28.116Z,3.27
2023-10-03T20:09:54.636Z,2.83
2023-10-03T20:12:21.570Z,3.23
2023-10-03T20:14:48.249Z,3.50
2023-10-03T20:17:15.693Z,3.40
2023-10-03T20:19:42.624Z,2.80
2023-10-03T20:22:09.402Z,2.97
2023-10-03T20:24:36.050Z,2.70
2023-10-03T20:27:02.784Z,2.83
2023-10-03T20:29:29.357Z,2.67
2023-10-03T20:31:55.945Z,2.90
2023-10-03T20:34:22.420Z,2.87
2023-10-03T20:36:49.137Z,3.10
2023-10-03T20:39:15.975Z,3.57
2023-10-03T20:41:42.648Z,2.60
2023-10-03T20:44:09.498Z,2.73
2023-10-03T20:46:36.088Z,2.70
2023-10-03T20:49:02.884Z,3.23
2023-10-03T20:51:29.734Z,2.83
2023-10-03T20:53:56.423Z,2.80
2023-10-03T20:56:22.923Z,3.00
2023-10-03T20:59:02.320Z,3.03
2023-10-03T21:01:29.006Z,2.40
2023-10-03T21:03:55.600Z,3.13
2023-10-03T21:06:22.190Z,3.10
2023-10-03T21:08:48.781Z,2.97
2023-10-03T21:11:17.439Z,3.17
2023-10-03T21:13:46.500Z,3.67
2023-10-03T21:16:13.165Z,3.10
2023-10-03T21:18:39.922Z,3.07
2023-10-03T21:21:12.536Z,3.10
2023-10-03T21:23:39.670Z,2.77
2023-10-03T21:26:07.779Z,2.93
2023-10-03T21:28:35.943Z,3.60
2023-10-03T21:31:03.749Z,2.97
2023-10-03T21:33:30.610Z,2.90
2023-10-03T21:35:57.299Z,3.10
2023-10-03T21:38:24.896Z,2.57
2023-10-03T21:40:51.456Z,3.07
2023-10-03T21:43:18.067Z,2.70
2023-10-03T21:45:44.727Z,3.20
2023-10-03T21:48:11.422Z,3.20
2023-10-03T21:50:38.574Z,3.00
2023-10-03T21:53:05.821Z,2.77
2023-10-03T21:55:32.520Z,2.83
2023-10-03T21:58:02.080Z,3.20
2023-10-03T22:00:36.232Z,3.17
2023-10-03T22:03:04.922Z,3.97
2023-10-03T22:05:32.718Z,3.20
2023-10-03T22:07:59.461Z,3.20
2023-10-03T22:10:25.980Z,2.80
2023-10-03T22:12:53.167Z,2.30
2023-10-03T22:15:20.085Z,2.87
2023-10-03T22:17:46.992Z,2.40
2023-10-03T22:20:13.878Z,2.80
2023-10-03T22:22:41.516Z,4.00
2023-10-03T22:25:11.541Z,3.10
2023-10-03T22:27:38.106Z,3.77
2023-10-03T22:30:06.842Z,2.90
2023-10-03T22:32:34.132Z,3.00
2023-10-03T22:35:00.760Z,3.00
2023-10-03T22:37:27.290Z,3.57
2023-10-03T22:39:53.826Z,2.90
2023-10-03T22:42:20.469Z,2.93
2023-10-03T22:44:47.570Z,3.10
2023-10-03T22:47:14.201Z,3.33
2023-10-03T22:49:40.705Z,2.90
2023-10-03T22:52:07.240Z,3.13
2023-10-03T22:54:35.606Z,3.07
2023-10-03T22:57:02.164Z,3.30
2023-10-03T22:59:28.784Z,3.20
2023-10-03T23:01:55.616Z,2.77
2023-10-03T23:04:22.991Z,3.00
2023-10-03T23:06:49.537Z,3.30
2023-10-03T23:09:16.104Z,3.13
2023-10-03T23:11:44.963Z,3.30
2023-10-03T23:14:11.972Z,3.23
2023-10-03T23:16:38.547Z,3.20
2023-10-03T23:19:07.093Z,3.03
2023-10-03T23:21:34.138Z,3.40
2023-10-03T23:24:00.941Z,3.80
2023-10-03T23:26:27.694Z,2.90
2023-10-03T23:28:54.236Z,3.20
2023-10-03T23:31:20.819Z,3.30
2023-10-03T23:33:47.422Z,3.00
2023-10-03T23:36:14.031Z,3.20
2023-10-03T23:38:41.183Z,4.03
2023-10-03T23:41:07.898Z,3.03
2023-10-03T23:43:34.713Z,3.47
2023-10-03T23:46:10.758Z,3.33
2023-10-03T23:48:37.748Z,3.60
2023-10-03T23:51:04.518Z,2.90
2023-10-03T23:53:31.460Z,3.10
2023-10-03T23:55:59.576Z,3.13
2023-10-03T23:58:26.425Z,2.80
